Time;durP1;ratioP1;P1;durP2;ratioP2;P2;SDS_P1;SDS_P2;PMS_P1;PMS_P2;Temp;Humidity;BMP_temperature;BMP_pressure;BME280_temperature;BME280_humidity;BME280_pressure;Samples;Min_cycle;Max_cycle;Signal;HPM_P1;HPM_P2
2022/06/15 00:02:08;;;;;;;7.57;4.13;;;;;;;21.80;59.61;99644.78;5068208;28;20192;-57
2022/06/15 00:04:37;;;;;;;5.23;4.00;;;;;;;21.78;59.83;99641.38;5056438;28;20200;-57
2022/06/15 00:07:04;;;;;;;6.55;4.20;;;;;;;21.78;59.84;99641.38;5060748;28;20435;-57
2022/06/15 00:09:31;;;;;;;4.23;3.87;;;;;;;21.62;59.85;99609.50;5056866;28;20702;-57
2022/06/15 00:11:58;;;;;;;4.47;4.07;;;;;;;21.75;59.42;99641.44;5064309;28;20191;-57
2022/06/15 00:14:27;;;;;;;7.33;4.00;;;;;;;21.69;59.73;99641.59;5069920;28;20199;-57
2022/06/15 00:16:54;;;;;;;4.77;4.40;;;;;;;21.69;59.39;99645.09;5070113;28;20218;-57
2022/06/15 00:19:22;;;;;;;4.47;4.17;;;;;;;21.68;59.31;99630.28;5070194;28;20199;-57
2022/06/15 00:21:50;;;;;;;4.07;3.70;;;;;;;21.65;59.76;99640.81;5070062;28;20195;-57
2022/06/15 00:24:17;;;;;;;6.27;3.87;;;;;;;21.60;59.88;99634.84;5070124;28;20197;-57
2022/06/15 00:26:44;;;;;;;5.83;3.90;;;;;;;21.55;59.67;99631.50;5070141;28;20253;-57
2022/06/15 00:29:11;;;;;;;4.60;4.03;;;;;;;21.45;59.73;99634.41;5072114;28;20183;-57
2022/06/15 00:31:38;;;;;;;4.30;3.90;;;;;;;21.50;59.33;99635.13;5074414;28;20191;-57
2022/06/15 00:34:05;;;;;;;4.27;3.87;;;;;;;21.51;58.83;99632.47;5074077;28;20825;-58
2022/06/15 00:36:32;;;;;;;5.80;4.23;;;;;;;21.52;58.93;99636.81;5074152;28;20215;-57
2022/06/15 00:39:02;;;;;;;4.37;3.87;;;;;;;21.47;59.04;99640.44;5073960;28;20195;-57
2022/06/15 00:41:31;;;;;;;4.30;3.90;;;;;;;21.30;58.89;99617.34;5074093;28;20732;-57
2022/06/15 00:44:00;;;;;;;4.47;4.00;;;;;;;21.45;58.41;99635.22;5074120;28;20192;-57
2022/06/15 00:46:31;;;;;;;4.33;3.93;;;;;;;21.41;58.65;99643.22;5073811;28;20571;-57
2022/06/15 00:49:02;;;;;;;8.43;3.67;;;;;;;21.40;58.58;99650.19;5074162;28;20206;-57
2022/06/15 00:51:30;;;;;;;5.33;3.67;;;;;;;21.40;58.23;99649.34;5073988;28;20551;-57
2022/06/15 00:53:59;;;;;;;4.00;3.33;;;;;;;21.37;58.05;99649.44;5073851;28;20194;-64
2022/06/15 00:56:29;;;;;;;4.70;3.47;;;;;;;21.37;58.02;99639.81;5073977;28;20223;-65
2022/06/15 00:59:00;;;;;;;4.50;4.10;;;;;;;21.37;57.60;99652.03;5073856;28;20191;-64
2022/06/15 01:01:28;;;;;;;6.17;3.57;;;;;;;21.37;57.46;99654.66;5073821;28;20218;-65
2022/06/15 01:03:58;;;;;;;4.57;3.77;;;;;;;21.36;57.35;99639.84;5073817;28;20578;-64
2022/06/15 01:06:36;;;;;;;3.70;3.40;;;;;;;21.33;57.17;99651.25;5073522;28;20187;-65
2022/06/15 01:09:11;;;;;;;4.43;3.70;;;;;;;21.30;57.21;99651.31;5072668;28;20449;-64
2022/06/15 01:11:54;;;;;;;5.73;3.60;;;;;;;;;;5072765;28;20195;-65
2022/06/15 01:14:44;;;;;;;4.97;3.40;;;;;;;21.32;57.02;99646.03;5073696;28;20210;-64
2022/06/15 01:17:26;;;;;;;5.97;3.40;;;;;;;21.33;56.77;99643.41;5073317;28;20564;-65
2022/06/15 01:20:16;;;;;;;5.00;3.30;;;;;;;21.28;56.96;99654.88;5073396;28;20187;-65
2022/06/15 01:23:26;;;;;;;3.77;3.47;;;;;;;21.23;57.04;99639.31;5073030;28;20187;-64
2022/06/15 01:26:04;;;;;;;6.50;3.90;;;;;;;21.21;57.33;99637.59;5073399;28;20192;-64
2022/06/15 01:28:42;;;;;;;4.27;3.60;;;;;;;21.18;57.38;99635.94;5073493;28;20196;-66
2022/06/15 01:31:21;;;;;;;3.67;3.38;;;;;;;21.21;57.46;99635.00;5072869;28;20442;-64
2022/06/15 01:34:00;;;;;;;5.00;3.70;;;;;;;21.17;57.15;99632.47;5073016;28;20581;-64
2022/06/15 01:36:34;;;;;;;5.27;3.40;;;;;;;21.17;57.18;99634.22;5072745;28;20200;-66
2022/06/15 01:39:06;;;;;;;4.27;3.57;;;;;;;21.14;56.74;99634.31;5073073;28;20195;-65
2022/06/15 01:41:35;;;;;;;4.57;3.30;;;;;;;21.12;56.51;99638.72;5072162;28;20203;-65
2022/06/15 01:44:08;;;;;;;4.70;3.63;;;;;;;21.06;56.56;99624.00;5073038;28;20223;-65
2022/06/15 01:46:41;;;;;;;3.80;3.50;;;;;;;21.05;56.43;99637.97;5073147;28;20198;-64
2022/06/15 01:49:11;;;;;;;4.67;3.53;;;;;;;21.07;56.79;99637.94;5072681;28;20697;-64
2022/06/15 01:51:42;;;;;;;7.23;3.60;;;;;;;21.04;56.71;99635.41;5073042;28;20207;-64
2022/06/15 01:54:13;;;;;;;3.33;3.03;;;;;;;20.85;57.02;99618.44;5072851;28;20191;-64
2022/06/15 01:56:44;;;;;;;4.70;3.67;;;;;;;21.06;56.18;99639.69;5072647;28;20200;-65
2022/06/15 01:59:17;;;;;;;3.80;3.50;;;;;;;21.09;56.50;99649.25;5072878;28;20230;-64
2022/06/15 02:01:53;;;;;;;5.43;3.23;;;;;;;21.10;56.03;99645.69;5072576;28;20180;-65
2022/06/15 02:04:29;;;;;;;4.53;3.50;;;;;;;20.99;56.43;99640.72;5072350;28;20206;-65
2022/06/15 02:07:09;;;;;;;4.67;3.50;;;;;;;21.02;56.35;99652.84;5072497;28;20190;-64
2022/06/15 02:09:45;;;;;;;4.10;3.70;;;;;;;21.04;56.05;99646.69;5072354;28;20231;-66
2022/06/15 02:12:15;;;;;;;5.37;3.60;;;;;;;21.05;56.20;99653.63;5071098;28;20437;-64
2022/06/15 02:14:45;;;;;;;4.23;3.83;;;;;;;21.08;56.10;99657.97;5072324;28;20191;-64
2022/06/15 02:17:18;;;;;;;3.80;3.40;;;;;;;21.06;55.54;99655.38;5072275;28;20219;-64
2022/06/15 02:19:48;;;;;;;4.00;3.17;;;;;;;20.96;55.64;99653.84;5072132;28;20195;-64
2022/06/15 02:22:20;;;;;;;5.07;4.20;;;;;;;20.96;55.88;99658.19;5072289;28;20192;-64
2022/06/15 02:24:51;;;;;;;4.57;3.10;;;;;;;20.99;56.11;99665.97;5072120;28;20674;-65
2022/06/15 02:27:20;;;;;;;3.87;3.30;;;;;;;20.92;56.08;99662.66;5072237;28;20188;-64
2022/06/15 02:29:49;;;;;;;3.73;3.33;;;;;;;20.89;56.12;99662.72;5072095;28;20226;-64
2022/06/15 02:32:19;;;;;;;3.80;3.50;;;;;;;20.88;56.35;99667.97;5072157;28;20191;-64
2022/06/15 02:34:46;;;;;;;10.93;3.47;;;;;;;20.90;55.99;99677.50;5072210;28;20187;-64
2022/06/15 02:37:13;;;;;;;5.30;3.37;;;;;;;20.90;55.69;99674.03;5071974;28;20223;-64
2022/06/15 02:39:40;;;;;;;4.33;3.77;;;;;;;20.74;56.21;99670.88;5071786;28;20195;-64
2022/06/15 02:42:24;;;;;;;4.20;3.80;;;;;;;20.76;55.85;99676.09;5071714;28;20191;-64
2022/06/15 02:44:53;;;;;;;4.53;3.77;;;;;;;20.82;55.70;99686.41;5071589;28;20196;-64
2022/06/15 02:47:26;;;;;;;3.97;3.60;;;;;;;20.79;55.75;99689.09;5071749;28;20224;-65
2022/06/15 02:49:53;;;;;;;5.23;3.50;;;;;;;20.79;54.49;99686.47;5071511;28;20556;-64
2022/06/15 02:52:24;;;;;;;3.70;3.40;;;;;;;20.78;54.17;99687.34;5070578;28;20192;-64
2022/06/15 02:54:54;;;;;;;3.73;3.43;;;;;;;20.82;53.86;99692.47;5071490;28;20196;-64
2022/06/15 02:57:22;;;;;;;3.93;3.63;;;;;;;20.89;53.49;99711.50;5071483;28;20242;-64
2022/06/15 02:59:49;;;;;;;6.67;3.63;;;;;;;20.92;54.05;99714.03;5071660;28;20203;-65
2022/06/15 03:02:17;;;;;;;3.93;3.63;;;;;;;21.08;53.88;99705.84;5071560;28;20211;-64
2022/06/15 03:04:46;;;;;;;3.67;3.30;;;;;;;21.33;53.94;99715.72;5071404;28;20191;-64
2022/06/15 03:07:14;;;;;;;3.67;3.17;;;;;;;21.56;53.77;99706.41;5071423;28;20197;-64
2022/06/15 03:09:41;;;;;;;3.60;3.30;;;;;;;21.67;53.15;99709.63;5071459;28;20239;-64
2022/06/15 03:12:10;;;;;;;5.33;3.13;;;;;;;21.92;52.90;99716.91;5071419;28;20609;-64
2022/06/15 03:14:37;;;;;;;4.00;3.60;;;;;;;21.99;52.49;99718.44;5070467;28;20506;-64
2022/06/15 03:17:04;;;;;;;4.77;3.20;;;;;;;22.02;51.84;99721.00;5071142;28;20250;-64
2022/06/15 03:19:31;;;;;;;4.60;3.50;;;;;;;22.08;51.50;99721.69;5071205;28;20577;-64
2022/06/15 03:21:59;;;;;;;4.73;3.43;;;;;;;22.04;51.37;99717.44;5071020;28;20196;-65
2022/06/15 03:24:26;;;;;;;3.73;3.40;;;;;;;21.90;50.35;99721.31;5070957;28;20202;-64
2022/06/15 03:26:53;;;;;;;7.87;3.37;;;;;;;21.94;50.62;99728.19;5071120;28;20582;-65
2022/06/15 03:29:20;;;;;;;7.53;3.77;;;;;;;21.90;51.04;99727.41;5070783;28;20198;-64
2022/06/15 03:31:47;;;;;;;3.47;3.23;;;;;;;22.01;50.74;99733.22;5070791;28;20282;-64
2022/06/15 03:34:14;;;;;;;5.30;3.70;;;;;;;22.08;51.00;99734.78;5070372;28;20203;-64
2022/06/15 03:36:40;;;;;;;6.07;3.50;;;;;;;22.11;50.30;99726.81;5069965;28;20446;-64
2022/06/15 03:39:09;;;;;;;5.33;3.07;;;;;;;22.16;49.67;99731.94;5070737;28;20191;-65
2022/06/15 03:41:36;;;;;;;2.83;2.63;;;;;;;22.28;49.20;99732.47;5070336;28;20198;-64
2022/06/15 03:44:03;;;;;;;3.47;3.10;;;;;;;22.28;49.56;99732.47;5070373;28;20281;-64
2022/06/15 03:46:30;;;;;;;4.00;3.60;;;;;;;22.34;49.50;99739.28;5070375;28;20188;-65
2022/06/15 03:48:57;;;;;;;3.30;3.03;;;;;;;22.36;49.82;99734.03;5070279;28;20194;-64
2022/06/15 03:51:24;;;;;;;4.53;3.20;;;;;;;22.32;50.61;99741.09;5070174;28;20199;-65
2022/06/15 03:53:50;;;;;;;3.70;3.50;;;;;;;22.38;50.49;99732.22;5070470;28;20191;-65
2022/06/15 03:56:19;;;;;;;5.33;4.07;;;;;;;22.47;50.91;99732.81;5070113;28;20666;-64
2022/06/15 03:58:46;;;;;;;8.33;3.90;;;;;;;22.52;50.59;99741.41;5070008;28;20198;-65
2022/06/15 04:01:14;;;;;;;4.47;3.30;;;;;;;22.36;50.53;99698.22;5069927;28;20196;-65
2022/06/15 04:03:40;;;;;;;4.20;3.80;;;;;;;22.59;50.71;99735.09;5069792;28;20188;-65
2022/06/15 04:06:07;;;;;;;4.30;3.90;;;;;;;22.58;50.63;99746.47;5070034;28;20245;-64
2022/06/15 04:08:38;;;;;;;4.33;3.57;;;;;;;22.42;50.04;99741.69;5069370;28;20196;-64
2022/06/15 04:11:07;;;;;;;4.83;3.40;;;;;;;22.34;49.36;99736.69;5069932;28;20301;-65
2022/06/15 04:13:36;;;;;;;6.90;3.27;;;;;;;22.29;49.87;99744.66;5069869;28;20624;-64
2022/06/15 04:16:06;;;;;;;4.20;3.60;;;;;;;22.30;49.55;99742.91;5069660;28;20441;-65
2022/06/15 04:18:33;;;;;;;8.90;3.90;;;;;;;22.28;49.59;99739.47;5070033;28;20564;-66
2022/06/15 04:21:00;;;;;;;3.60;3.30;;;;;;;22.26;48.63;99743.88;5069759;28;20199;-65
2022/06/15 04:23:27;;;;;;;5.93;3.37;;;;;;;22.22;49.03;99748.34;5070281;28;20202;-66
2022/06/15 04:25:58;;;;;;;3.90;3.30;;;;;;;22.23;49.43;99738.72;5069940;28;20202;-65
2022/06/15 04:28:26;;;;;;;6.90;3.73;;;;;;;22.26;50.20;99749.13;5070153;28;20661;-65
2022/06/15 04:30:54;;;;;;;4.10;3.70;;;;;;;22.32;49.50;99752.44;5070382;28;20195;-65
2022/06/15 04:33:23;;;;;;;5.27;3.37;;;;;;;22.37;48.76;99752.31;5069910;28;20187;-64
2022/06/15 04:35:50;;;;;;;4.20;3.80;;;;;;;22.46;50.15;99759.91;5069591;28;20191;-64
2022/06/15 04:38:17;;;;;;;5.27;4.10;;;;;;;22.40;50.60;99752.22;5069972;28;20222;-64
2022/06/15 04:40:44;;;;;;;4.93;4.00;;;;;;;22.47;50.53;99760.78;5069911;28;20196;-64
2022/06/15 04:43:11;;;;;;;6.20;4.00;;;;;;;22.50;51.24;99758.91;5069778;28;20192;-64
2022/06/15 04:45:38;;;;;;;4.57;3.83;;;;;;;22.43;51.31;99757.38;5069342;28;20483;-64
2022/06/15 04:48:09;;;;;;;5.67;4.40;;;;;;;22.46;51.37;99759.91;5069579;28;20188;-66
2022/06/15 04:50:37;;;;;;;6.50;3.60;;;;;;;22.42;50.27;99760.03;5069421;28;20198;-65
2022/06/15 04:53:05;;;;;;;5.70;3.60;;;;;;;22.37;51.45;99751.44;5067749;28;20204;-65
2022/06/15 04:55:34;;;;;;;3.73;3.43;;;;;;;22.38;50.91;99747.94;5068989;28;20677;-65
2022/06/15 04:58:01;;;;;;;6.47;4.20;;;;;;;22.40;51.26;99756.59;5069044;28;20220;-65
2022/06/15 05:00:31;;;;;;;4.30;3.90;;;;;;;22.50;51.04;99758.06;5068278;28;20195;-57
2022/06/15 05:02:58;;;;;;;4.27;3.87;;;;;;;22.43;51.23;99738.19;5068932;28;20192;-57
2022/06/15 05:05:26;;;;;;;6.50;3.93;;;;;;;22.58;50.53;99746.47;5069079;28;20192;-57
2022/06/15 05:07:53;;;;;;;7.47;4.30;;;;;;;22.66;50.40;99743.69;5069044;28;20670;-57
2022/06/15 05:10:23;;;;;;;8.43;3.87;;;;;;;22.66;51.23;99752.38;5068909;28;20235;-57
2022/06/15 05:12:50;;;;;;;6.17;4.20;;;;;;;22.81;51.03;99751.94;5068939;28;20191;-56
2022/06/15 05:15:18;;;;;;;3.80;3.50;;;;;;;22.84;51.09;99754.47;5069638;28;20192;-57
2022/06/15 05:17:46;;;;;;;5.27;4.53;;;;;;;22.90;51.37;99756.94;5072636;28;20226;-57
2022/06/15 05:20:16;;;;;;;4.53;3.87;;;;;;;22.91;50.91;99755.13;5071984;28;20199;-57
2022/06/15 05:22:49;;;;;;;7.17;4.37;;;;;;;23.03;51.21;99759.16;5072134;28;20200;-57
2022/06/15 05:25:16;;;;;;;6.70;3.97;;;;;;;23.11;50.47;99759.78;5062395;28;20203;-56
2022/06/15 05:27:43;;;;;;;7.47;4.20;;;;;;;23.14;49.48;99757.06;5072945;28;20191;-57
2022/06/15 05:30:11;;;;;;;6.33;3.47;;;;;;;23.17;48.27;99756.97;5072486;28;20641;-57
2022/06/15 05:32:39;;;;;;;3.63;3.33;;;;;;;23.05;48.04;99767.81;5072495;28;20191;-57
2022/06/15 05:35:06;;;;;;;5.47;3.20;;;;;;;23.02;46.99;99754.84;5072779;28;20214;-57
2022/06/15 05:37:33;;;;;;;5.90;3.60;;;;;;;23.06;46.35;99769.56;5072009;28;20211;-57
2022/06/15 05:40:02;;;;;;;5.67;3.87;;;;;;;23.04;46.57;99768.75;5072169;28;20194;-57
2022/06/15 05:42:29;;;;;;;4.22;3.35;;;;;;;23.04;45.83;99763.50;5072065;28;20441;-56
2022/06/15 05:44:56;;;;;;;3.63;3.33;;;;;;;23.16;46.04;99771.84;5071796;28;20191;-56
2022/06/15 05:47:23;;;;;;;3.90;3.13;;;;;;;23.18;45.23;99771.81;5072071;28;20192;-57
2022/06/15 05:49:51;;;;;;;6.20;3.60;;;;;;;23.27;45.21;99761.88;5072160;28;20191;-57
2022/06/15 05:52:17;;;;;;;6.47;3.43;;;;;;;23.31;43.29;99767.91;5071800;28;20561;-56
2022/06/15 05:54:44;;;;;;;4.70;3.47;;;;;;;23.32;42.63;99774.88;5071783;28;20198;-57
2022/06/15 05:57:18;;;;;;;4.77;3.90;;;;;;;23.33;43.41;99766.09;5072034;28;20276;-57
2022/06/15 05:59:45;;;;;;;3.90;3.50;;;;;;;23.41;43.13;99767.59;5071787;28;20203;-57
2022/06/15 06:02:12;;;;;;;3.30;3.00;;;;;;;23.46;43.13;99776.19;5071955;28;20282;-56
2022/06/15 06:04:39;;;;;;;5.50;3.80;;;;;;;23.51;42.89;99775.19;5071820;28;20191;-57
2022/06/15 06:07:06;;;;;;;5.23;3.47;;;;;;;23.55;41.95;99769.78;5071704;28;20997;-57
2022/06/15 06:09:33;;;;;;;7.47;3.63;;;;;;;23.56;42.94;99779.38;5071906;28;20227;-57
2022/06/15 06:12:00;;;;;;;5.50;3.60;;;;;;;23.59;41.97;99781.06;5071775;28;20297;-57
2022/06/15 06:14:28;;;;;;;6.23;3.53;;;;;;;23.57;41.52;99775.84;5070975;28;20195;-57
2022/06/15 06:16:55;;;;;;;5.30;3.30;;;;;;;23.61;41.80;99780.09;5069114;28;20191;-57
2022/06/15 06:19:22;;;;;;;4.83;3.43;;;;;;;23.51;41.06;99788.31;5066875;28;20191;-57
2022/06/15 06:21:49;;;;;;;6.88;3.50;;;;;;;23.46;41.56;99784.03;5066669;28;20450;-57
2022/06/15 06:24:16;;;;;;;3.90;3.20;;;;;;;23.57;41.24;99783.69;5071137;28;20230;-57
2022/06/15 06:26:44;;;;;;;4.07;2.97;;;;;;;23.48;40.97;99791.88;5071366;28;20867;-58
2022/06/15 06:29:14;;;;;;;8.23;3.50;;;;;;;23.55;41.90;99779.41;5071576;28;20221;-64
2022/06/15 06:31:43;;;;;;;3.43;3.13;;;;;;;23.62;41.89;99787.06;5070656;28;20199;-64
2022/06/15 06:34:10;;;;;;;5.03;3.50;;;;;;;23.59;41.80;99800.28;5066588;28;20184;-64
2022/06/15 06:36:40;;;;;;;7.07;3.63;;;;;;;23.60;41.68;99790.63;5071407;28;20205;-65
2022/06/15 06:39:13;;;;;;;8.43;3.30;;;;;;;23.66;41.74;99782.56;5070074;28;20212;-64
2022/06/15 06:41:40;;;;;;;4.27;3.00;;;;;;;23.75;41.85;99785.75;5060089;28;20207;-65
2022/06/15 06:44:07;;;;;;;4.93;3.35;;;;;;;23.85;42.43;99779.28;5065063;28;20442;-64
2022/06/15 06:46:35;;;;;;;4.97;3.17;;;;;;;23.96;42.33;99786.78;5071372;28;20195;-64
2022/06/15 06:49:06;;;;;;;5.25;3.70;;;;;;;23.98;43.23;99785.00;5070443;28;20438;-64
2022/06/15 06:51:34;;;;;;;5.93;3.17;;;;;;;24.09;42.52;99782.88;5070818;28;20245;-66
2022/06/15 06:54:01;;;;;;;4.17;3.13;;;;;;;24.03;41.96;99783.06;5064762;28;20257;-64
2022/06/15 06:56:28;;;;;;;6.20;3.77;;;;;;;24.07;42.32;99784.66;5070815;28;20202;-64
2022/06/15 06:58:55;;;;;;;6.57;3.73;;;;;;;24.20;42.42;99772.88;5068407;28;20226;-65
2022/06/15 07:01:22;;;;;;;3.77;3.00;;;;;;;23.97;41.80;99726.38;5066527;28;20194;-64
2022/06/15 07:03:49;;;;;;;6.17;3.30;;;;;;;24.29;41.84;99775.19;5069813;28;20306;-64
2022/06/15 07:06:17;;;;;;;5.63;3.40;;;;;;;24.17;42.20;99786.13;5067678;28;20322;-65
2022/06/15 07:08:44;;;;;;;6.03;4.00;;;;;;;24.25;42.59;99775.34;5054299;28;20192;-65
2022/06/15 07:11:14;;;;;;;7.17;3.50;;;;;;;24.37;42.49;99780.16;5051548;28;20228;-64
2022/06/15 07:13:41;;;;;;;4.37;3.67;;;;;;;24.53;42.11;99774.31;5050384;28;20264;-65
2022/06/15 07:16:10;;;;;;;4.63;3.10;;;;;;;24.47;41.72;99747.41;5051431;28;20195;-65
2022/06/15 07:18:37;;;;;;;4.50;3.47;;;;;;;24.61;41.73;99782.75;5053854;28;20215;-64
2022/06/15 07:21:04;;;;;;;5.03;3.27;;;;;;;24.53;40.01;99776.94;5069544;28;20192;-64
2022/06/15 07:23:33;;;;;;;3.75;2.90;;;;;;;24.60;40.53;99778.44;5069295;28;20469;-65
2022/06/15 07:26:04;;;;;;;3.50;3.20;;;;;;;24.70;40.00;99781.56;5070078;28;20191;-65
2022/06/15 07:28:31;;;;;;;4.60;3.70;;;;;;;24.70;39.91;99783.34;5069694;28;20268;-65
2022/06/15 07:30:58;;;;;;;4.97;3.27;;;;;;;24.73;40.21;99778.84;5063338;28;20195;-65
2022/06/15 07:33:25;;;;;;;7.50;3.67;;;;;;;24.90;40.34;99773.84;5066052;28;20201;-65
2022/06/15 07:35:52;;;;;;;7.10;3.60;;;;;;;24.93;39.49;99779.00;5066789;28;20207;-64
2022/06/15 07:38:20;;;;;;;3.67;3.33;;;;;;;24.91;39.44;99778.22;5049544;28;20295;-65
2022/06/15 07:40:49;;;;;;;3.90;3.13;;;;;;;24.93;39.52;99783.38;5059888;28;20199;-65
2022/06/15 07:43:16;;;;;;;3.60;3.30;;;;;;;25.02;39.97;99781.28;5068898;28;20199;-65
2022/06/15 07:45:43;;;;;;;3.90;3.50;;;;;;;24.97;39.86;99779.75;5064887;28;20214;-65
2022/06/15 07:50:55;;;;;;;6.00;3.70;;;;;;;25.18;40.48;99779.78;5069062;28;20412;-65
2022/06/15 07:53:22;;;;;;;3.40;3.00;;;;;;;25.29;39.63;99775.88;5068846;28;20195;-65
2022/06/15 07:55:52;;;;;;;5.37;3.73;;;;;;;25.31;38.80;99780.16;5061631;28;20198;-65
2022/06/15 07:58:19;;;;;;;5.17;3.33;;;;;;;25.21;38.75;99779.66;5049061;28;20654;-65
2022/06/15 08:00:49;;;;;;;4.33;2.97;;;;;;;25.24;38.93;99776.88;5065394;28;20194;-64
2022/06/15 08:03:16;;;;;;;5.37;2.60;;;;;;;25.16;39.16;99775.50;5069411;28;20192;-65
2022/06/15 08:05:48;;;;;;;4.00;3.03;;;;;;;25.12;39.35;99774.75;5057334;28;20200;-65
2022/06/15 08:08:18;;;;;;;7.23;3.43;;;;;;;25.12;39.82;99776.53;5051480;28;20249;-64
2022/06/15 08:10:46;;;;;;;3.90;3.23;;;;;;;25.13;38.84;99780.88;5067649;28;20227;-65
2022/06/15 08:13:15;;;;;;;3.13;2.73;;;;;;;25.23;39.63;99772.56;5060524;28;20200;-65
2022/06/15 08:15:44;;;;;;;3.37;3.07;;;;;;;25.17;39.42;99735.97;5048768;28;20681;-65
2022/06/15 08:18:15;;;;;;;4.47;3.30;;;;;;;25.34;39.15;99761.63;5062073;28;20690;-65
2022/06/15 08:20:46;;;;;;;3.53;2.87;;;;;;;25.44;38.21;99778.75;5068437;28;20563;-65
2022/06/15 08:23:17;;;;;;;3.43;3.13;;;;;;;25.52;38.68;99774.06;5052247;28;20196;-65
2022/06/15 08:25:47;;;;;;;4.60;3.17;;;;;;;25.54;39.25;99768.75;5052952;28;20434;-66
2022/06/15 08:28:18;;;;;;;5.73;3.00;;;;;;;25.75;39.63;99773.13;5069488;28;20298;-65
2022/06/15 08:30:45;;;;;;;2.87;2.63;;;;;;;25.94;38.63;99776.72;5069118;28;20202;-65
2022/06/15 08:33:12;;;;;;;3.13;2.83;;;;;;;25.83;38.18;99775.44;5048880;28;20204;-66
2022/06/15 08:35:39;;;;;;;3.30;3.00;;;;;;;25.85;38.92;99777.09;5048832;28;20291;-66
2022/06/15 08:38:08;;;;;;;5.03;3.27;;;;;;;25.92;38.50;99778.56;5048396;28;20567;-66
2022/06/15 08:40:45;;;;;;;3.83;3.17;;;;;;;25.92;40.61;99770.66;5049057;28;20192;-66
2022/06/15 08:43:24;;;;;;;4.23;3.80;;;;;;;26.06;40.79;99776.22;5049162;28;20196;-66
2022/06/15 08:45:56;;;;;;;5.00;3.47;;;;;;;26.15;38.72;99770.56;5048963;28;20196;-65
2022/06/15 08:48:39;;;;;;;5.20;3.57;;;;;;;26.23;39.57;99773.72;5049045;28;20234;-65
2022/06/15 08:51:12;;;;;;;4.40;3.10;;;;;;;26.32;40.12;99773.34;5052148;28;20192;-65
2022/06/15 08:53:48;;;;;;;6.03;3.47;;;;;;;26.28;39.15;99776.19;5052709;28;20195;-66
2022/06/15 08:56:20;;;;;;;5.23;3.30;;;;;;;26.21;38.74;99783.47;5052869;28;20214;-64
2022/06/15 08:58:55;;;;;;;5.30;3.20;;;;;;;26.23;39.33;99771.09;5052838;28;20219;-65
2022/06/15 09:01:28;;;;;;;3.73;3.33;;;;;;;26.33;39.83;99774.19;5052361;28;20195;-65
2022/06/15 09:04:05;;;;;;;4.37;3.40;;;;;;;26.40;39.92;99766.91;5052385;28;20211;-64
2022/06/15 09:06:46;;;;;;;4.47;3.80;;;;;;;26.44;39.10;99773.72;5052716;28;20196;-65
2022/06/15 09:09:29;;;;;;;3.63;3.10;;;;;;;26.42;39.57;99768.53;5052728;28;20208;-64
2022/06/15 09:14:59;;;;;;;5.10;3.40;;;;;;;26.62;40.15;99765.00;5052615;28;20183;-66
2022/06/15 09:17:28;;;;;;;3.88;3.50;;;;;;;26.59;39.89;99767.78;5052222;28;20206;-65
2022/06/15 09:20:01;;;;;;;5.22;3.75;;;;;;;26.65;40.31;99775.41;5058455;28;20214;-65
2022/06/15 09:22:35;;;;;;;4.28;3.80;;;;;;;26.71;41.65;99772.50;5060913;28;20203;-65
2022/06/15 09:25:17;;;;;;;4.00;3.70;;;;;;;26.62;41.89;99772.91;5057232;28;20461;-65
2022/06/15 09:27:49;;;;;;;4.10;3.80;;;;;;;26.64;42.20;99758.75;5072003;28;20195;-65
2022/06/15 09:30:22;;;;;;;4.00;3.60;;;;;;;26.38;41.78;99759.91;5072234;28;20195;-65
2022/06/15 09:32:54;;;;;;;5.38;4.30;;;;;;;26.58;42.77;99773.97;5071804;28;20444;-66
2022/06/15 09:35:28;;;;;;;4.30;3.53;;;;;;;26.72;40.57;99768.94;5072242;28;20271;-65
2022/06/15 09:37:57;;;;;;;3.93;3.57;;;;;;;26.57;41.72;99766.97;5070969;28;20527;-65
2022/06/15 09:40:32;;;;;;;4.77;3.53;;;;;;;26.60;39.59;99769.50;5069972;28;20195;-66
2022/06/15 09:43:05;;;;;;;5.27;3.67;;;;;;;26.82;39.99;99770.25;5068173;28;20269;-63
2022/06/15 09:45:39;;;;;;;4.65;3.78;;;;;;;26.78;39.71;99763.44;5071793;28;20192;-65
2022/06/15 09:48:15;;;;;;;3.93;3.57;;;;;;;26.94;39.89;99767.09;5064477;28;20195;-66
2022/06/15 09:50:48;;;;;;;4.55;3.42;;;;;;;27.02;37.21;99772.84;5069244;28;20912;-65
2022/06/15 09:53:42;;;;;;;7.97;3.60;;;;;;;27.08;37.52;99761.16;5070051;28;20192;-65
2022/06/15 09:56:13;;;;;;;3.67;3.38;;;;;;;27.15;36.74;99760.78;5070739;28;20192;-63
2022/06/15 09:58:45;;;;;;;4.60;3.38;;;;;;;27.28;37.50;99767.19;5070919;28;20208;-65
2022/06/15 10:01:15;;;;;;;3.88;3.50;;;;;;;27.35;36.90;99763.34;5070012;28;20187;-65
2022/06/15 10:03:46;;;;;;;3.97;3.63;;;;;;;27.30;37.67;99764.50;5071100;28;20279;-65
2022/06/15 10:06:19;;;;;;;4.50;3.80;;;;;;;27.19;37.99;99761.50;5068188;28;20184;-67
2022/06/15 10:08:46;;;;;;;3.50;3.20;;;;;;;27.24;36.32;99757.72;5070434;28;20198;-57
2022/06/15 10:11:17;;;;;;;3.42;3.13;;;;;;;27.16;36.58;99751.97;5067676;28;20219;-57
2022/06/15 10:13:46;;;;;;;3.80;3.50;;;;;;;27.17;37.55;99758.94;5070321;28;20675;-57
2022/06/15 10:16:26;;;;;;;3.58;3.35;;;;;;;27.20;37.20;99757.94;5070883;28;20741;-58
2022/06/15 10:18:56;;;;;;;3.10;2.80;;;;;;;27.21;35.72;99762.28;5069983;28;20219;-58
2022/06/15 10:21:26;;;;;;;6.55;3.42;;;;;;;27.36;35.48;99754.47;5071228;28;20197;-58
2022/06/15 10:24:02;;;;;;;3.22;3.03;;;;;;;27.52;36.33;99746.75;5071037;28;20578;-57
2022/06/15 10:26:37;;;;;;;3.30;3.00;;;;;;;27.56;35.47;99744.78;5070512;28;20893;-58
2022/06/15 10:29:26;;;;;;;4.80;3.67;;;;;;;27.76;36.34;99742.88;5070637;28;20566;-58
2022/06/15 10:32:16;;;;;;;3.63;3.20;;;;;;;27.68;34.37;99729.19;5070298;28;20658;-57
2022/06/15 10:34:57;;;;;;;3.83;3.53;;;;;;;27.86;36.58;99754.69;5070627;28;20318;-57
2022/06/15 10:37:29;;;;;;;4.80;3.50;;;;;;;27.84;36.33;99743.34;5070460;28;20190;-58
2022/06/15 10:40:00;;;;;;;3.95;3.65;;;;;;;27.84;37.38;99735.44;5064600;28;20207;-57
2022/06/15 10:42:34;;;;;;;3.63;3.33;;;;;;;27.91;36.85;99743.88;5066787;28;20207;-57
2022/06/15 10:45:05;;;;;;;3.38;3.08;;;;;;;28.00;34.75;99740.78;5065826;28;20201;-58
2022/06/15 10:47:41;;;;;;;4.00;3.67;;;;;;;27.97;35.54;99736.50;5066891;28;20191;-57
2022/06/15 10:50:19;;;;;;;3.80;3.47;;;;;;;28.10;36.26;99734.97;5068318;28;20195;-57
2022/06/15 10:52:52;;;;;;;4.20;3.80;;;;;;;28.22;36.20;99736.13;5065325;28;20454;-57
2022/06/15 11:04:13;;;;;;;3.58;2.75;;;;;;;28.36;33.05;99723.06;5068975;28;20226;-57
2022/06/15 11:06:45;;;;;;;3.97;2.80;;;;;;;28.36;32.30;99738.91;5064648;28;20192;-57
2022/06/15 11:09:28;;;;;;;3.67;3.20;;;;;;;28.27;33.37;99712.09;5063694;28;20191;-57
2022/06/15 11:11:56;;;;;;;3.40;3.20;;;;;;;28.43;34.92;99719.13;5067671;28;20184;-57
2022/06/15 11:14:27;;;;;;;3.40;3.20;;;;;;;28.54;34.28;99716.78;5066999;28;20751;-57
2022/06/15 11:19:57;;;;;;;5.70;2.78;;;;;;;28.66;33.19;99721.44;5049780;28;20759;-56
2022/06/15 11:22:28;;;;;;;3.40;3.10;;;;;;;28.51;32.93;99718.75;5050472;28;20257;-57
2022/06/15 11:25:00;;;;;;;4.03;3.10;;;;;;;28.61;33.07;99710.25;5058929;28;20310;-56
2022/06/15 11:27:33;;;;;;;4.82;2.90;;;;;;;28.73;33.07;99715.84;5056578;28;20274;-56
2022/06/15 11:30:06;;;;;;;3.63;3.33;;;;;;;28.89;34.46;99717.56;5070053;28;20279;-57
2022/06/15 11:32:40;;;;;;;3.45;3.15;;;;;;;28.95;37.22;99713.72;5056434;28;20196;-57
2022/06/15 11:35:22;;;;;;;7.57;3.67;;;;;;;29.11;37.83;99701.34;5069777;28;20210;-57
2022/06/15 11:37:55;;;;;;;7.10;3.92;;;;;;;29.12;37.99;99703.03;5057240;28;20230;-57
2022/06/15 11:40:31;;;;;;;5.63;3.75;;;;;;;29.26;36.14;99711.06;5069558;28;20264;-58
2022/06/15 11:42:58;;;;;;;4.40;3.40;;;;;;;29.24;33.92;99702.38;5069423;28;20199;-58
2022/06/15 11:45:32;;;;;;;5.35;3.22;;;;;;;29.39;33.07;99700.66;5066720;28;20207;-57
2022/06/15 11:48:09;;;;;;;3.97;3.67;;;;;;;29.55;33.55;99702.34;5061945;28;20203;-57
2022/06/15 11:50:44;;;;;;;3.95;3.40;;;;;;;29.45;34.94;99703.78;5066823;28;20179;-57
2022/06/15 11:53:23;;;;;;;7.05;3.60;;;;;;;29.05;36.21;99706.97;5064763;28;20199;-57
2022/06/15 11:55:57;;;;;;;3.63;3.35;;;;;;;29.11;36.11;99704.84;5063476;28;20430;-57
2022/06/15 11:58:42;;;;;;;6.65;3.40;;;;;;;29.36;35.39;99707.00;5069114;28;20245;-58
2022/06/15 12:01:18;;;;;;;5.43;3.60;;;;;;;29.64;35.59;99701.78;5065743;28;20214;-57
2022/06/15 12:04:12;;;;;;;8.50;3.75;;;;;;;29.19;35.81;99707.91;5069345;28;20199;-57
2022/06/15 12:06:54;;;;;;;4.95;4.03;;;;;;;28.79;36.69;99689.06;5065616;28;20184;-58
2022/06/15 12:09:29;;;;;;;3.75;3.45;;;;;;;28.96;34.28;99707.47;5064095;28;20192;-65